createdAt,value
2018-06-08T00:01:09.080Z,58.30
2018-06-08T00:06:12.682Z,58.80
2018-06-08T00:11:16.275Z,58.90
2018-06-08T00:16:19.942Z,59.20
2018-06-08T00:21:23.590Z,58.80
2018-06-08T00:26:27.380Z,59.10
2018-06-08T00:31:31.889Z,59.20
2018-06-08T00:36:35.458Z,60.20
2018-06-08T00:41:39.040Z,59.60
2018-06-08T00:46:43.707Z,59.90
2018-06-08T00:51:47.324Z,60.10
2018-06-08T00:57:03.123Z,60.10
2018-06-08T01:02:06.823Z,60.50
2018-06-08T01:07:11.836Z,60.70
2018-06-08T01:12:15.405Z,60.30
2018-06-08T01:17:18.976Z,61.50
2018-06-08T01:22:23.500Z,60.90
2018-06-08T01:27:27.860Z,60.70
2018-06-08T01:37:35.085Z,60.90
2018-06-08T01:42:39.371Z,61.30
2018-06-08T01:47:43.372Z,61.90
2018-06-08T01:52:46.979Z,62.60
2018-06-08T01:57:50.731Z,62.90
2018-06-08T02:02:54.693Z,62.60
2018-06-08T02:07:58.307Z,62.90
2018-06-08T02:13:02.140Z,63.20
2018-06-08T02:18:05.988Z,63.60
2018-06-08T02:23:09.524Z,63.60
2018-06-08T02:28:13.788Z,63.80
2018-06-08T02:33:17.411Z,64.00
2018-06-08T02:38:21.058Z,63.50
2018-06-08T02:43:24.979Z,63.40
2018-06-08T02:48:29.200Z,63.10
2018-06-08T02:53:34.988Z,62.80
2018-06-08T02:58:38.581Z,63.10
2018-06-08T03:03:43.036Z,62.90
2018-06-08T03:08:46.607Z,63.00
2018-06-08T03:13:50.366Z,63.20
2018-06-08T03:18:54.563Z,63.40
2018-06-08T03:23:59.268Z,63.30
2018-06-08T03:29:02.847Z,62.90
2018-06-08T03:34:06.548Z,63.30
2018-06-08T03:39:10.343Z,62.70
2018-06-08T03:44:16.205Z,63.00
2018-06-08T03:49:19.844Z,63.40
2018-06-08T03:54:40.008Z,63.60
2018-06-08T03:59:50.654Z,63.20
2018-06-08T04:04:54.331Z,63.20
2018-06-08T04:09:58.165Z,63.10
2018-06-08T04:15:01.938Z,63.30
2018-06-08T04:20:05.665Z,63.70
2018-06-08T04:25:12.066Z,63.30
2018-06-08T04:30:16.635Z,62.70
2018-06-08T04:35:20.534Z,62.90
2018-06-08T04:40:24.179Z,63.20
2018-06-08T04:45:28.485Z,62.70
2018-06-08T04:50:32.085Z,62.80
2018-06-08T04:55:35.705Z,64.10
2018-06-08T05:00:39.489Z,64.00
2018-06-08T05:05:43.367Z,63.60
2018-06-08T05:10:47.027Z,63.40
2018-06-08T05:15:50.600Z,63.50
2018-06-08T05:25:59.738Z,63.30
2018-06-08T05:31:03.684Z,62.60
2018-06-08T05:36:07.269Z,62.10
2018-06-08T05:41:10.822Z,63.60
2018-06-08T05:46:14.383Z,64.30
2018-06-08T05:51:18.053Z,64.20
2018-06-08T05:56:23.524Z,64.90
2018-06-08T06:01:27.065Z,64.10
2018-06-08T06:06:30.711Z,63.20
2018-06-08T06:11:38.352Z,63.70
2018-06-08T06:16:42.687Z,63.80
2018-06-08T06:21:46.619Z,63.60
2018-06-08T06:26:50.311Z,62.50
2018-06-08T06:31:55.863Z,62.40
2018-06-08T06:36:59.475Z,61.70
2018-06-08T06:42:03.125Z,60.90
2018-06-08T06:47:06.991Z,62.30
2018-06-08T06:52:10.580Z,62.00
2018-06-08T06:57:14.233Z,61.80
2018-06-08T07:02:18.108Z,60.50
2018-06-08T07:07:30.829Z,60.40
2018-06-08T07:12:34.652Z,60.10
2018-06-08T07:17:38.643Z,61.80
2018-06-08T07:22:42.365Z,61.60
2018-06-08T07:27:46.263Z,61.70
2018-06-08T07:32:50.638Z,61.40
2018-06-08T07:37:54.232Z,60.20
2018-06-08T07:42:57.868Z,60.20
2018-06-08T07:48:01.677Z,60.10
2018-06-08T07:53:05.647Z,59.70
2018-06-08T07:58:09.336Z,59.30
2018-06-08T08:03:13.528Z,59.60
2018-06-08T08:08:17.371Z,60.00
2018-06-08T08:13:21.145Z,59.90
2018-06-08T08:23:28.343Z,59.80
2018-06-08T08:28:32.325Z,58.90
2018-06-08T08:33:35.912Z,61.00
2018-06-08T08:38:39.478Z,61.30
2018-06-08T08:43:49.784Z,59.40
2018-06-08T08:48:53.343Z,59.00
2018-06-08T08:53:56.888Z,56.90
2018-06-08T08:59:01.344Z,57.00
2018-06-08T09:04:05.173Z,56.20
2018-06-08T09:09:08.778Z,56.50
2018-06-08T09:14:13.284Z,55.90
2018-06-08T09:19:17.547Z,56.20
2018-06-08T09:24:21.958Z,55.10
2018-06-08T09:29:25.956Z,53.30
2018-06-08T09:34:29.552Z,52.60
2018-06-08T09:39:33.149Z,52.80
2018-06-08T09:44:36.791Z,53.50
2018-06-08T09:49:55.649Z,53.60
2018-06-08T09:54:59.280Z,54.70
2018-06-08T10:00:02.904Z,55.10
2018-06-08T10:05:06.774Z,54.20
2018-06-08T10:10:10.495Z,54.30
2018-06-08T10:15:14.257Z,53.10
2018-06-08T10:20:17.941Z,54.40
2018-06-08T10:25:21.556Z,53.40
2018-06-08T10:30:25.174Z,51.80
2018-06-08T10:40:32.985Z,53.10
2018-06-08T10:45:36.921Z,52.80
2018-06-08T10:50:40.614Z,51.80
2018-06-08T10:55:44.997Z,50.50
2018-06-08T11:00:49.672Z,50.40
2018-06-08T11:05:54.196Z,51.00
2018-06-08T11:10:58.120Z,51.00
2018-06-08T11:16:01.769Z,46.10
2018-06-08T11:21:06.526Z,48.20
2018-06-08T11:26:10.698Z,47.80
2018-06-08T11:31:14.399Z,48.30
2018-06-08T11:36:17.979Z,49.90
2018-06-08T11:41:22.135Z,48.80
2018-06-08T11:46:25.754Z,47.70
2018-06-08T11:51:31.192Z,48.10
2018-06-08T11:56:35.350Z,43.60
2018-06-08T12:06:42.859Z,42.10
2018-06-08T12:11:46.777Z,42.20
2018-06-08T12:16:50.474Z,41.40
2018-06-08T12:26:57.560Z,40.40
2018-06-08T12:32:01.256Z,40.20
2018-06-08T12:37:05.042Z,39.10
2018-06-08T12:42:09.186Z,39.10
2018-06-08T12:47:13.164Z,39.30
2018-06-08T12:52:17.653Z,39.90
2018-06-08T12:57:21.432Z,37.80
2018-06-08T13:02:25.157Z,38.80
2018-06-08T13:07:29.315Z,36.80
2018-06-08T13:17:36.315Z,35.50
2018-06-08T13:22:49.887Z,36.10
2018-06-08T13:28:02.874Z,36.70
2018-06-08T13:39:03.100Z,35.90
2018-06-08T13:44:07.885Z,34.60
2018-06-08T13:49:18.286Z,34.60
2018-06-08T13:54:22.411Z,33.80
2018-06-08T13:59:27.045Z,34.70
2018-06-08T14:04:32.080Z,34.50
2018-06-08T14:09:37.195Z,35.10
2018-06-08T14:14:42.297Z,32.70
2018-06-08T14:19:46.499Z,33.60
2018-06-08T14:24:50.583Z,31.20
2018-06-08T14:29:54.442Z,33.30
2018-06-08T14:34:58.635Z,30.90
2018-06-08T14:40:02.277Z,33.40
2018-06-08T14:45:09.076Z,41.30
2018-06-08T14:50:13.330Z,41.70
2018-06-08T14:55:19.218Z,47.90
2018-06-08T15:00:25.430Z,52.10
2018-06-08T15:05:29.353Z,54.60
2018-06-08T15:10:35.110Z,53.10
2018-06-08T15:15:39.132Z,54.90
2018-06-08T15:20:44.950Z,56.80
2018-06-08T15:25:48.535Z,57.10
2018-06-08T15:31:01.666Z,59.30
2018-06-08T15:36:09.864Z,60.60
2018-06-08T15:41:15.420Z,62.40
2018-06-08T15:46:22.149Z,62.30
2018-06-08T15:51:26.044Z,60.20
2018-06-08T15:56:31.768Z,61.00
2018-06-08T16:01:35.907Z,60.20
2018-06-08T16:06:39.656Z,65.00
2018-06-08T16:11:44.892Z,64.40
2018-06-08T16:16:48.904Z,68.10
2018-06-08T16:21:54.705Z,68.60
2018-06-08T16:27:00.124Z,68.60
2018-06-08T16:32:05.084Z,68.70
2018-06-08T16:37:08.917Z,71.20
2018-06-08T16:42:14.429Z,68.80
2018-06-08T16:47:18.758Z,69.80
2018-06-08T16:52:22.551Z,65.40
2018-06-08T16:57:26.996Z,74.00
2018-06-08T17:02:36.665Z,74.80
2018-06-08T17:07:40.436Z,74.10
2018-06-08T17:12:45.105Z,73.40
2018-06-08T17:17:48.982Z,73.20
2018-06-08T17:27:56.489Z,76.10
2018-06-08T17:33:00.228Z,76.60
2018-06-08T17:38:04.815Z,75.80
2018-06-08T17:43:09.267Z,75.90
2018-06-08T17:48:14.923Z,74.00
2018-06-08T17:53:22.173Z,73.30
2018-06-08T17:58:26.459Z,73.50
2018-06-08T18:03:30.919Z,72.50
2018-06-08T18:08:34.982Z,72.10
2018-06-08T18:19:09.058Z,72.10
2018-06-08T18:24:13.052Z,71.60
2018-06-08T18:29:17.198Z,71.10
2018-06-08T18:34:20.982Z,72.00
2018-06-08T18:39:24.727Z,74.20
2018-06-08T18:44:29.559Z,77.80
2018-06-08T18:49:33.325Z,78.20
2018-06-08T18:54:38.380Z,79.10
2018-06-08T18:59:55.581Z,78.70
2018-06-08T19:05:04.240Z,78.00
2018-06-08T19:10:08.469Z,78.60
2018-06-08T19:15:13.171Z,77.60
2018-06-08T19:20:17.812Z,77.60
2018-06-08T19:25:23.232Z,76.20
2018-06-08T19:30:33.442Z,76.60
2018-06-08T19:35:50.647Z,76.30
2018-06-08T19:40:56.526Z,75.60
2018-06-08T19:46:05.273Z,75.00
2018-06-08T19:51:16.354Z,75.70
2018-06-08T19:56:23.584Z,74.70
2018-06-08T20:01:31.040Z,76.10
2018-06-08T20:06:34.804Z,76.60
2018-06-08T20:11:38.796Z,75.70
2018-06-08T20:16:43.663Z,74.50
2018-06-08T20:21:47.236Z,73.70
2018-06-08T20:26:50.846Z,74.00
2018-06-08T20:31:54.974Z,74.60
2018-06-08T20:36:58.941Z,74.90
2018-06-08T20:42:02.932Z,74.00
2018-06-08T20:47:06.589Z,75.50
2018-06-08T20:52:10.256Z,76.00
2018-06-08T20:57:25.532Z,78.30
2018-06-08T21:02:31.040Z,79.50
2018-06-08T21:07:35.359Z,79.10
2018-06-08T21:12:39.035Z,79.20
2018-06-08T21:17:42.752Z,79.70
2018-06-08T21:22:46.845Z,77.70
2018-06-08T21:27:50.912Z,77.00
2018-06-08T21:32:54.506Z,77.30
2018-06-08T21:38:00.857Z,78.10
2018-06-08T21:43:04.482Z,78.50
2018-06-08T21:48:08.091Z,79.50
2018-06-08T21:53:12.056Z,81.40
2018-06-08T21:58:15.824Z,81.20
2018-06-08T22:03:20.019Z,80.50
2018-06-08T22:08:23.776Z,79.40
2018-06-08T22:13:27.747Z,78.90
2018-06-08T22:18:31.764Z,78.90
2018-06-08T22:23:35.569Z,77.90
2018-06-08T22:28:39.165Z,77.30
2018-06-08T22:33:42.797Z,76.90
2018-06-08T22:38:46.435Z,78.10
2018-06-08T22:43:50.276Z,77.10
2018-06-08T22:48:53.858Z,76.60
2018-06-08T22:53:57.479Z,77.30
2018-06-08T22:59:01.095Z,77.80
2018-06-08T23:04:06.347Z,78.00
2018-06-08T23:09:09.923Z,78.70
2018-06-08T23:14:13.586Z,77.40
2018-06-08T23:19:17.341Z,77.40
2018-06-08T23:29:25.142Z,77.00
2018-06-08T23:34:28.832Z,77.80
2018-06-08T23:39:32.515Z,77.40
2018-06-08T23:44:36.483Z,77.90
2018-06-08T23:49:40.298Z,78.40
2018-06-08T23:54:43.977Z,78.60
2018-06-08T23:59:47.912Z,78.60
